Flight Track Log - Related Links

Times and Time Zones

All times are in EST time to prevent confusion due to time zone crossing. See the FFT919 flight status page for this flight to view local times or setup timezone preferences in your user account.

Time Position Orientation Groundspeed Altitude Reporting Facility
EST Latitude Longitude Course Direction KTS MPH feet Rate Location/Type
Mon 08:03:44 AM 40.2390 -74.8610 223° Southwest 197 227 2,100  Level FlightAware ADS-B
Mon 08:04:11 AM 40.2200 -74.8840 223° Southwest 221 254 3,200 2,557 Climbing FlightAware ADS-B
Mon 08:04:45 AM 40.1910 -74.9180 222° Southwest 260 299 4,700 2,583 Climbing FlightAware ADS-B
Mon 08:05:23 AM 40.1490 -74.9480 209° Southwest 274 315 6,300 1,500 Climbing FlightAware ADS-B
Mon 08:06:01 AM 40.1060 -74.9780 208° Southwest 278 320 6,600 400 Climbing FlightAware ADS-B
Mon 08:06:38 AM 40.0640 -75.0080 209° Southwest 276 318 6,800 1,200 Climbing FlightAware ADS-B
Mon 08:07:26 AM 40.0120 -75.0440 208° Southwest 277 319 8,300 1,912 Climbing FlightAware ADS-B
Mon 08:08:09 AM 39.9640 -75.0770 208° Southwest 275 316 9,700 1,200 Climbing FlightAware ADS-B
Mon 08:08:36 AM 39.9320 -75.1000 209° Southwest 293 337 9,700  Level FlightAware ADS-B
Mon 08:08:57 AM 39.9070 -75.1160 206° Southwest 305 351 9,700  Level FlightAware ADS-B
Mon 08:09:45 AM 39.8430 -75.1600 208° Southwest 312 359 9,700 276 Level FlightAware ADS-B
Mon 08:10:24 AM 39.7970 -75.1930 209° Southwest 317 365 10,100 857 Climbing FlightAware ADS-B
Mon 08:10:55 AM 39.7530 -75.2230 208° Southwest 320 368 10,700 1,032 Climbing FlightAware ADS-B
Mon 08:11:57 AM 39.6690 -75.2800 208° Southwest 327 376 11,700 647 Climbing FlightAware ADS-B
Mon 08:12:37 AM 39.6170 -75.3060 201° Southwest 339 390 11,800 607 Climbing FlightAware ADS-B
Mon 08:13:26 AM 39.5390 -75.3200 188° South 331 381 12,600 975 Climbing FlightAware ADS-B
Mon 08:13:57 AM 39.4940 -75.3290 189° South 326 375 13,100 1,048 Climbing FlightAware ADS-B
Mon 08:14:29 AM 39.4420 -75.3380 188° South 338 389 13,700 1,258 Climbing FlightAware ADS-B
Mon 08:14:59 AM 39.3950 -75.3470 188° South 348 400 14,400 1,667 Climbing FlightAware ADS-B
Mon 08:15:41 AM 39.3290 -75.3590 188° South 353 406 15,700 1,747 Climbing FlightAware ADS-B
Mon 08:16:18 AM 39.2670 -75.3700 188° South 357 411 16,700 779 Climbing FlightAware ADS-B
Mon 08:16:58 AM 39.2000 -75.3820 188° South 363 418 16,700  Level FlightAware ADS-B
Mon 08:17:29 AM 39.1510 -75.3890 186° South 367 422 16,700  Level FlightAware ADS-B
Mon 08:18:03 AM 39.0920 -75.3980 187° South 367 422 16,700 831 Level FlightAware ADS-B
Mon 08:18:34 AM 39.0380 -75.4060 187° South 366 421 17,600 2,192 Climbing FlightAware ADS-B
Mon 08:19:47 AM 38.9150 -75.4250 187° South 380 437 20,500 2,278 Climbing FlightAware ADS-B
Mon 08:20:22 AM 38.8490 -75.4350 187° South 392 451 21,700 1,917 Climbing FlightAware ADS-B
Mon 08:20:59 AM 38.7820 -75.4450 187° South 403 464 22,800 2,027 Climbing FlightAware ADS-B
Mon 08:21:36 AM 38.7150 -75.4550 187° South 403 464 24,200 2,051 Climbing FlightAware ADS-B
Mon 08:22:18 AM 38.6380 -75.4670 187° South 412 474 25,500 1,870 Climbing FlightAware ADS-B
Mon 08:22:53 AM 38.5680 -75.4770 186° South 416 479 26,600 2,240 Climbing FlightAware ADS-B
Mon 08:23:33 AM 38.4940 -75.4880 187° South 407 468 28,300 2,192 Climbing FlightAware ADS-B
Mon 08:24:37 AM 38.3760 -75.5090 188° South 398 458 30,400 1,982 Climbing FlightAware ADS-B
Mon 08:25:22 AM 38.2990 -75.5400 198° South 379 436 31,900 1,215 Climbing FlightAware ADS-B
Mon 08:25:56 AM 38.2440 -75.5730 205° Southwest 369 425 32,000 77 Climbing FlightAware ADS-B
Mon 08:26:40 AM 38.1810 -75.6120 206° Southwest 369 425 32,000  Level FlightAware ADS-B
Mon 08:27:11 AM 38.1360 -75.6490 213° Southwest 362 417 32,000  Level FlightAware ADS-B
Mon 08:27:40 AM 38.0990 -75.6850 217° Southwest 364 419 32,000  Level FlightAware ADS-B
Mon 08:28:25 AM 38.0350 -75.7480 218° Southwest 366 421 32,000  Level FlightAware ADS-B
Mon 08:28:49 AM 38.0060 -75.7760 217° Southwest 367 422 32,000  Level FlightAware ADS-B
Mon 08:29:33 AM 37.9460 -75.8350 218° Southwest 369 425 32,000  Level FlightAware ADS-B
Mon 08:30:23 AM 37.8810 -75.8980 217° Southwest 370 426 32,000  Level FlightAware ADS-B
Mon 08:30:58 AM 37.8280 -75.9490 217° Southwest 369 425 32,000  Level FlightAware ADS-B
Mon 08:31:58 AM 37.7470 -76.0280 218° Southwest 366 421 32,000  Level FlightAware ADS-B
Mon 08:32:24 AM 37.7130 -76.0620 218° Southwest 366 421 32,000 -486 Level FlightAware ADS-B
Mon 08:33:12 AM 37.6500 -76.1220 217° Southwest 368 423 31,400 -923 Descending FlightAware ADS-B
Mon 08:33:42 AM 37.6080 -76.1630 218° Southwest 369 425 30,800 -1,024 Descending FlightAware ADS-B
Mon 08:34:34 AM 37.5350 -76.2330 217° Southwest 376 433 30,000 -975 Descending FlightAware ADS-B
Mon 08:35:02 AM 37.4970 -76.2700 218° Southwest 379 436 29,500 -1,217 Descending FlightAware ADS-B
Mon 08:35:43 AM 37.4400 -76.3250 217° Southwest 378 435 28,600 -1,771 Descending FlightAware ADS-B
Mon 08:36:47 AM 37.3540 -76.4060 217° Southwest 369 425 26,400 -1,776 Descending FlightAware ADS-B
Mon 08:37:21 AM 37.3260 -76.4340 218° Southwest 367 422 25,700 -2,028 Descending FlightAware ADS-B
Mon 08:37:58 AM 37.2590 -76.5010 219° Southwest 354 407 24,000 -1,667 Descending FlightAware ADS-B
Mon 08:38:33 AM 37.2230 -76.5550 230° Southwest 348 400 23,700 -411 Descending FlightAware ADS-B
Mon 08:39:11 AM 37.1840 -76.6150 231° Southwest 345 397 23,500 -400 Descending FlightAware ADS-B
Mon 08:39:48 AM 37.1490 -76.6710 232° Southwest 344 396 23,200 -477 Descending FlightAware ADS-B
Mon 08:40:39 AM 37.0970 -76.7520 231° Southwest 342 394 22,800 -404 Descending FlightAware ADS-B
Mon 08:41:17 AM 37.0580 -76.8120 231° Southwest 343 395 22,600 -429 Descending FlightAware ADS-B
Mon 08:41:49 AM 37.0270 -76.8600 231° Southwest 343 395 22,300 -441 Descending FlightAware ADS-B
Mon 08:42:25 AM 36.9920 -76.9140 231° Southwest 342 394 22,100 -494 Descending FlightAware ADS-B
Mon 08:43:14 AM 36.9520 -76.9750 231° Southwest 302 348 21,600 -849 Descending FlightAware ADS-B
Mon 08:44:11 AM 36.8890 -77.0720 231° Southwest 337 388 20,600 -756 Descending FlightAware ADS-B
Mon 08:45:29 AM 36.8190 -77.1810 231° Southwest 333 383 19,900 -368 Descending FlightAware ADS-B
Mon 08:46:05 AM 36.7890 -77.2260 230° Southwest 333 383 19,900 -1,600 Level FlightAware ADS-B
Mon 08:46:14 AM 36.7670 -77.2590 230° Southwest 329 379 18,700 -1,200 Descending FlightAware ADS-B
Mon 08:47:05 AM 36.7260 -77.3230 231° Southwest 329 379 18,700  Level FlightAware ADS-B
Mon 08:47:56 AM 36.6840 -77.3870 231° Southwest 329 379 18,700  Level FlightAware ADS-B
Mon 08:48:30 AM 36.6560 -77.4300 231° Southwest 329 379 18,700  Level FlightAware ADS-B
Mon 08:49:40 AM 36.5990 -77.5170 231° Southwest 329 379 18,700  Level FlightAware ADS-B
Mon 08:50:05 AM 36.5790 -77.5480 231° Southwest 329 379 18,700 -1,423 Level FlightAware ADS-B
Mon 08:54:52 AM 36.2840 -77.9950 231° Southwest 302 348 11,300 -1,425 Descending FlightAware ADS-B
Mon 08:55:46 AM 36.2360 -78.0680 231° Southwest 304 350 10,600 -767 Descending FlightAware ADS-B
Mon 08:56:18 AM 36.2070 -78.1110 230° Southwest 304 350 10,200 -857 Descending FlightAware ADS-B
Mon 08:56:56 AM 36.1740 -78.1600 230° Southwest 284 327 9,600 -1,200 Descending FlightAware ADS-B
Mon 08:57:38 AM 36.1460 -78.2180 239° Southwest 277 319 8,600 -1,538 Descending FlightAware ADS-B
Mon 08:58:14 AM 36.1230 -78.2670 240° Southwest 275 316 7,600 -1,583 Descending FlightAware ADS-B
Mon 08:58:50 AM 36.1080 -78.3190 250° West 279 321 6,700 -1,537 Descending FlightAware ADS-B
Mon 08:59:36 AM 36.0890 -78.3900 252° West 274 315 5,500 -1,610 Descending FlightAware ADS-B
Mon 09:00:12 AM 36.0730 -78.4450 250° West 281 323 4,500 -1,324 Descending FlightAware ADS-B
Mon 09:00:44 AM 36.0600 -78.4930 251° West 275 316 4,000 -818 Descending FlightAware ADS-B
Mon 09:01:18 AM 36.0470 -78.5400 251° West 254 292 3,600 -686 Descending FlightAware ADS-B
Mon 09:01:54 AM 36.0350 -78.5880 253° West 230 265 3,200 -656 Descending FlightAware ADS-B
Mon 09:02:22 AM 36.0220 -78.6190 243° Southwest 221 254 2,900 -581 Descending FlightAware ADS-B
Mon 09:02:56 AM 35.9980 -78.6490 225° Southwest 215 247 2,600 -568 Descending FlightAware ADS-B
Mon 09:03:36 AM 35.9710 -78.6820 225° Southwest 196 226 2,200 -846 Descending FlightAware ADS-B
Mon 09:04:14 AM 35.9470 -78.7120 225° Southwest 185 213 1,500 -1,017 Descending FlightAware ADS-B
Mon 09:04:35 AM 35.9370 -78.7250 226° Southwest 171 197 1,200 -367 Descending FlightAware ADS-B
Mon 09:05:03 AM 35.9230 -78.7420 225° Southwest 171 197 1,200 -419 Level FlightAware ADS-B
Mon 09:06:01 AM 35.8967 -78.7767 225° Southwest 120 138 600 -621 Descending Washington Center
Mon 09:08:00 AM 35.8776 -78.7875 349° North  Level Estimated

Login

Don't have an account? Register now (free) for customized features, flight alerts, and more!